sensor_id;sensor_type;location;lat;lon;timestamp;P1;durP1;ratioP1;P2;durP2;ratioP2
72864;SDS011;61000;48.120;11.548;2023-05-27T00:01:17;10.90;;;8.18;;
72864;SDS011;61000;48.120;11.548;2023-05-27T00:03:46;16.13;;;8.65;;
72864;SDS011;61000;48.120;11.548;2023-05-27T00:06:13;12.63;;;8.40;;
72864;SDS011;61000;48.120;11.548;2023-05-27T00:08:40;15.88;;;7.78;;
72864;SDS011;61000;48.120;11.548;2023-05-27T00:11:07;15.75;;;8.45;;
72864;SDS011;61000;48.120;11.548;2023-05-27T00:13:34;11.73;;;8.52;;
72864;SDS011;61000;48.120;11.548;2023-05-27T00:16:00;12.48;;;8.30;;
72864;SDS011;61000;48.120;11.548;2023-05-27T00:18:28;13.10;;;8.70;;
72864;SDS011;61000;48.120;11.548;2023-05-27T00:20:59;11.95;;;8.20;;
72864;SDS011;61000;48.120;11.548;2023-05-27T00:23:26;12.00;;;8.40;;
72864;SDS011;61000;48.120;11.548;2023-05-27T00:25:53;13.13;;;8.20;;
72864;SDS011;61000;48.120;11.548;2023-05-27T00:28:20;19.48;;;9.80;;
72864;SDS011;61000;48.120;11.548;2023-05-27T00:30:47;15.60;;;8.48;;
72864;SDS011;61000;48.120;11.548;2023-05-27T00:33:13;13.68;;;8.52;;
72864;SDS011;61000;48.120;11.548;2023-05-27T00:35:40;10.93;;;8.82;;
72864;SDS011;61000;48.120;11.548;2023-05-27T00:38:09;12.20;;;9.30;;
72864;SDS011;61000;48.120;11.548;2023-05-27T00:40:35;13.63;;;8.10;;
72864;SDS011;61000;48.120;11.548;2023-05-27T00:43:05;13.85;;;8.90;;
72864;SDS011;61000;48.120;11.548;2023-05-27T00:45:32;14.32;;;9.07;;
72864;SDS011;61000;48.120;11.548;2023-05-27T00:47:59;12.68;;;9.07;;
72864;SDS011;61000;48.120;11.548;2023-05-27T00:50:28;11.98;;;8.82;;
72864;SDS011;61000;48.120;11.548;2023-05-27T00:52:56;13.70;;;9.07;;
72864;SDS011;61000;48.120;11.548;2023-05-27T00:55:25;13.32;;;9.35;;
72864;SDS011;61000;48.120;11.548;2023-05-27T00:57:53;15.70;;;8.80;;
72864;SDS011;61000;48.120;11.548;2023-05-27T01:00:20;12.80;;;9.38;;
72864;SDS011;61000;48.120;11.548;2023-05-27T01:02:47;14.07;;;8.98;;
72864;SDS011;61000;48.120;11.548;2023-05-27T01:05:16;13.73;;;8.80;;
72864;SDS011;61000;48.120;11.548;2023-05-27T01:07:48;14.25;;;9.70;;
72864;SDS011;61000;48.120;11.548;2023-05-27T01:10:31;14.95;;;9.23;;
72864;SDS011;61000;48.120;11.548;2023-05-27T01:13:05;13.38;;;9.00;;
72864;SDS011;61000;48.120;11.548;2023-05-27T01:15:37;12.63;;;9.27;;
72864;SDS011;61000;48.120;11.548;2023-05-27T01:18:06;13.43;;;9.52;;
72864;SDS011;61000;48.120;11.548;2023-05-27T01:20:35;15.10;;;9.50;;
72864;SDS011;61000;48.120;11.548;2023-05-27T01:23:07;12.73;;;9.35;;
72864;SDS011;61000;48.120;11.548;2023-05-27T01:25:34;13.98;;;9.90;;
72864;SDS011;61000;48.120;11.548;2023-05-27T01:28:01;13.13;;;9.40;;
72864;SDS011;61000;48.120;11.548;2023-05-27T01:30:29;16.67;;;9.75;;
72864;SDS011;61000;48.120;11.548;2023-05-27T01:32:59;15.55;;;9.90;;
72864;SDS011;61000;48.120;11.548;2023-05-27T01:35:30;12.88;;;9.18;;
72864;SDS011;61000;48.120;11.548;2023-05-27T01:38:04;17.25;;;10.52;;
72864;SDS011;61000;48.120;11.548;2023-05-27T01:40:38;18.40;;;9.77;;
72864;SDS011;61000;48.120;11.548;2023-05-27T01:43:06;11.82;;;9.35;;
72864;SDS011;61000;48.120;11.548;2023-05-27T01:45:34;13.55;;;9.73;;
72864;SDS011;61000;48.120;11.548;2023-05-27T01:48:01;14.90;;;9.57;;
72864;SDS011;61000;48.120;11.548;2023-05-27T01:50:28;15.77;;;10.32;;
72864;SDS011;61000;48.120;11.548;2023-05-27T01:52:56;10.88;;;8.63;;
72864;SDS011;61000;48.120;11.548;2023-05-27T01:55:24;17.75;;;10.10;;
72864;SDS011;61000;48.120;11.548;2023-05-27T01:57:52;12.85;;;9.48;;
72864;SDS011;61000;48.120;11.548;2023-05-27T02:00:20;13.25;;;9.50;;
72864;SDS011;61000;48.120;11.548;2023-05-27T02:02:47;12.65;;;10.02;;
72864;SDS011;61000;48.120;11.548;2023-05-27T02:05:16;15.07;;;9.93;;
72864;SDS011;61000;48.120;11.548;2023-05-27T02:07:43;12.43;;;9.45;;
72864;SDS011;61000;48.120;11.548;2023-05-27T02:10:10;15.45;;;10.45;;
72864;SDS011;61000;48.120;11.548;2023-05-27T02:12:37;15.75;;;9.25;;
72864;SDS011;61000;48.120;11.548;2023-05-27T02:15:06;11.52;;;9.00;;
72864;SDS011;61000;48.120;11.548;2023-05-27T02:17:34;10.88;;;9.32;;
72864;SDS011;61000;48.120;11.548;2023-05-27T02:20:01;17.90;;;9.68;;
72864;SDS011;61000;48.120;11.548;2023-05-27T02:22:29;12.98;;;9.38;;
72864;SDS011;61000;48.120;11.548;2023-05-27T02:24:56;14.10;;;9.15;;
72864;SDS011;61000;48.120;11.548;2023-05-27T02:27:23;13.18;;;9.90;;
72864;SDS011;61000;48.120;11.548;2023-05-27T02:29:51;12.25;;;8.88;;
72864;SDS011;61000;48.120;11.548;2023-05-27T02:32:20;16.50;;;10.40;;
72864;SDS011;61000;48.120;11.548;2023-05-27T02:34:47;15.98;;;9.85;;
72864;SDS011;61000;48.120;11.548;2023-05-27T02:37:14;12.93;;;9.57;;
72864;SDS011;61000;48.120;11.548;2023-05-27T02:39:41;15.68;;;9.95;;
72864;SDS011;61000;48.120;11.548;2023-05-27T02:42:08;13.05;;;9.15;;
72864;SDS011;61000;48.120;11.548;2023-05-27T02:44:35;18.90;;;9.98;;
72864;SDS011;61000;48.120;11.548;2023-05-27T02:47:02;11.80;;;9.65;;
72864;SDS011;61000;48.120;11.548;2023-05-27T02:49:31;13.00;;;9.18;;
72864;SDS011;61000;48.120;11.548;2023-05-27T02:51:58;18.58;;;10.18;;
72864;SDS011;61000;48.120;11.548;2023-05-27T02:54:25;12.70;;;9.13;;
72864;SDS011;61000;48.120;11.548;2023-05-27T02:56:52;13.15;;;9.23;;
72864;SDS011;61000;48.120;11.548;2023-05-27T02:59:19;15.75;;;10.13;;
72864;SDS011;61000;48.120;11.548;2023-05-27T03:01:46;14.25;;;9.93;;
72864;SDS011;61000;48.120;11.548;2023-05-27T03:04:14;14.63;;;9.68;;
72864;SDS011;61000;48.120;11.548;2023-05-27T03:06:43;14.45;;;9.85;;
72864;SDS011;61000;48.120;11.548;2023-05-27T03:09:11;17.60;;;10.38;;
72864;SDS011;61000;48.120;11.548;2023-05-27T03:11:38;19.70;;;10.85;;
72864;SDS011;61000;48.120;11.548;2023-05-27T03:14:05;14.75;;;9.70;;
72864;SDS011;61000;48.120;11.548;2023-05-27T03:16:32;17.55;;;10.65;;
72864;SDS011;61000;48.120;11.548;2023-05-27T03:18:59;14.85;;;9.93;;
72864;SDS011;61000;48.120;11.548;2023-05-27T03:21:27;14.20;;;9.80;;
72864;SDS011;61000;48.120;11.548;2023-05-27T03:23:56;14.57;;;9.60;;
72864;SDS011;61000;48.120;11.548;2023-05-27T03:26:23;14.30;;;9.18;;
72864;SDS011;61000;48.120;11.548;2023-05-27T03:28:50;13.95;;;10.73;;
72864;SDS011;61000;48.120;11.548;2023-05-27T03:31:17;16.00;;;10.57;;
72864;SDS011;61000;48.120;11.548;2023-05-27T03:33:53;14.85;;;10.45;;
72864;SDS011;61000;48.120;11.548;2023-05-27T03:36:21;15.88;;;9.68;;
72864;SDS011;61000;48.120;11.548;2023-05-27T03:38:49;18.55;;;10.38;;
72864;SDS011;61000;48.120;11.548;2023-05-27T03:41:18;21.10;;;10.45;;
72864;SDS011;61000;48.120;11.548;2023-05-27T03:43:45;14.70;;;9.68;;
72864;SDS011;61000;48.120;11.548;2023-05-27T03:46:13;14.23;;;9.45;;
72864;SDS011;61000;48.120;11.548;2023-05-27T03:48:41;15.02;;;9.55;;
72864;SDS011;61000;48.120;11.548;2023-05-27T03:51:07;12.63;;;10.30;;
72864;SDS011;61000;48.120;11.548;2023-05-27T03:53:35;17.38;;;10.13;;
72864;SDS011;61000;48.120;11.548;2023-05-27T03:56:02;15.50;;;9.95;;
72864;SDS011;61000;48.120;11.548;2023-05-27T03:58:31;16.33;;;9.90;;
72864;SDS011;61000;48.120;11.548;2023-05-27T04:01:00;12.60;;;10.75;;
72864;SDS011;61000;48.120;11.548;2023-05-27T04:03:27;13.07;;;9.98;;
72864;SDS011;61000;48.120;11.548;2023-05-27T04:05:54;12.27;;;8.95;;
72864;SDS011;61000;48.120;11.548;2023-05-27T04:08:21;13.23;;;9.07;;
72864;SDS011;61000;48.120;11.548;2023-05-27T04:10:51;14.57;;;9.45;;
72864;SDS011;61000;48.120;11.548;2023-05-27T04:13:18;13.50;;;10.23;;
72864;SDS011;61000;48.120;11.548;2023-05-27T04:15:47;13.20;;;9.68;;
72864;SDS011;61000;48.120;11.548;2023-05-27T04:18:14;16.52;;;9.65;;
72864;SDS011;61000;48.120;11.548;2023-05-27T04:20:42;13.32;;;10.13;;
72864;SDS011;61000;48.120;11.548;2023-05-27T04:23:12;17.13;;;9.55;;
72864;SDS011;61000;48.120;11.548;2023-05-27T04:25:39;14.48;;;9.43;;
72864;SDS011;61000;48.120;11.548;2023-05-27T04:28:08;16.17;;;9.70;;
72864;SDS011;61000;48.120;11.548;2023-05-27T04:30:39;11.00;;;9.65;;
72864;SDS011;61000;48.120;11.548;2023-05-27T04:33:15;12.73;;;8.60;;
72864;SDS011;61000;48.120;11.548;2023-05-27T04:35:42;14.02;;;9.90;;
72864;SDS011;61000;48.120;11.548;2023-05-27T04:38:10;13.27;;;9.23;;
72864;SDS011;61000;48.120;11.548;2023-05-27T04:40:49;18.45;;;8.93;;
72864;SDS011;61000;48.120;11.548;2023-05-27T04:43:36;13.82;;;8.75;;
72864;SDS011;61000;48.120;11.548;2023-05-27T04:46:03;14.95;;;9.38;;
72864;SDS011;61000;48.120;11.548;2023-05-27T04:48:33;10.85;;;9.13;;
72864;SDS011;61000;48.120;11.548;2023-05-27T04:51:00;17.08;;;10.00;;
72864;SDS011;61000;48.120;11.548;2023-05-27T04:53:28;13.52;;;9.10;;
72864;SDS011;61000;48.120;11.548;2023-05-27T04:55:56;14.43;;;8.88;;
72864;SDS011;61000;48.120;11.548;2023-05-27T04:58:23;14.15;;;9.32;;
72864;SDS011;61000;48.120;11.548;2023-05-27T05:00:51;13.38;;;9.57;;
72864;SDS011;61000;48.120;11.548;2023-05-27T05:03:22;12.23;;;8.65;;
72864;SDS011;61000;48.120;11.548;2023-05-27T05:06:04;15.77;;;8.70;;
72864;SDS011;61000;48.120;11.548;2023-05-27T05:08:31;16.35;;;9.85;;
72864;SDS011;61000;48.120;11.548;2023-05-27T05:10:58;14.35;;;8.95;;
72864;SDS011;61000;48.120;11.548;2023-05-27T05:13:25;12.02;;;8.82;;
72864;SDS011;61000;48.120;11.548;2023-05-27T05:15:54;14.90;;;7.93;;
72864;SDS011;61000;48.120;11.548;2023-05-27T05:18:21;12.75;;;8.52;;
72864;SDS011;61000;48.120;11.548;2023-05-27T05:20:52;13.18;;;7.63;;
72864;SDS011;61000;48.120;11.548;2023-05-27T05:23:29;11.45;;;8.80;;
72864;SDS011;61000;48.120;11.548;2023-05-27T05:25:56;12.05;;;8.20;;
72864;SDS011;61000;48.120;11.548;2023-05-27T05:28:32;15.23;;;7.97;;
72864;SDS011;61000;48.120;11.548;2023-05-27T05:31:01;10.85;;;7.72;;
72864;SDS011;61000;48.120;11.548;2023-05-27T05:33:28;15.45;;;8.20;;
72864;SDS011;61000;48.120;11.548;2023-05-27T05:35:56;14.50;;;8.43;;
72864;SDS011;61000;48.120;11.548;2023-05-27T05:38:32;11.75;;;7.90;;
72864;SDS011;61000;48.120;11.548;2023-05-27T05:41:01;13.20;;;8.38;;
72864;SDS011;61000;48.120;11.548;2023-05-27T05:43:31;10.77;;;7.70;;
72864;SDS011;61000;48.120;11.548;2023-05-27T05:46:01;16.42;;;7.55;;
72864;SDS011;61000;48.120;11.548;2023-05-27T05:48:28;16.08;;;8.10;;
72864;SDS011;61000;48.120;11.548;2023-05-27T05:50:55;15.02;;;8.18;;
72864;SDS011;61000;48.120;11.548;2023-05-27T05:53:22;10.98;;;7.97;;
72864;SDS011;61000;48.120;11.548;2023-05-27T05:55:50;14.38;;;8.05;;
72864;SDS011;61000;48.120;11.548;2023-05-27T05:58:19;12.98;;;7.72;;
72864;SDS011;61000;48.120;11.548;2023-05-27T06:00:48;13.07;;;7.90;;
72864;SDS011;61000;48.120;11.548;2023-05-27T06:03:33;13.02;;;7.53;;
72864;SDS011;61000;48.120;11.548;2023-05-27T06:06:01;10.85;;;8.15;;
72864;SDS011;61000;48.120;11.548;2023-05-27T06:08:35;14.23;;;7.38;;
72864;SDS011;61000;48.120;11.548;2023-05-27T06:11:10;12.35;;;6.47;;
72864;SDS011;61000;48.120;11.548;2023-05-27T06:13:39;15.05;;;7.35;;
72864;SDS011;61000;48.120;11.548;2023-05-27T06:16:10;13.70;;;6.90;;
72864;SDS011;61000;48.120;11.548;2023-05-27T06:18:37;12.25;;;6.90;;
72864;SDS011;61000;48.120;11.548;2023-05-27T06:21:04;12.90;;;7.38;;
72864;SDS011;61000;48.120;11.548;2023-05-27T06:23:48;9.43;;;6.78;;
72864;SDS011;61000;48.120;11.548;2023-05-27T06:26:17;14.15;;;6.75;;
72864;SDS011;61000;48.120;11.548;2023-05-27T06:28:48;11.18;;;6.82;;
72864;SDS011;61000;48.120;11.548;2023-05-27T06:31:15;9.68;;;7.10;;
72864;SDS011;61000;48.120;11.548;2023-05-27T06:33:42;9.93;;;6.20;;
72864;SDS011;61000;48.120;11.548;2023-05-27T06:36:09;10.57;;;6.70;;
72864;SDS011;61000;48.120;11.548;2023-05-27T06:38:39;9.60;;;6.57;;
72864;SDS011;61000;48.120;11.548;2023-05-27T06:41:06;13.80;;;6.97;;
72864;SDS011;61000;48.120;11.548;2023-05-27T06:43:36;10.93;;;6.30;;
72864;SDS011;61000;48.120;11.548;2023-05-27T06:46:33;8.82;;;6.10;;
72864;SDS011;61000;48.120;11.548;2023-05-27T06:49:07;11.65;;;6.25;;
72864;SDS011;61000;48.120;11.548;2023-05-27T06:51:34;11.13;;;6.32;;
72864;SDS011;61000;48.120;11.548;2023-05-27T06:54:01;12.02;;;6.53;;
72864;SDS011;61000;48.120;11.548;2023-05-27T06:56:34;10.57;;;5.97;;
72864;SDS011;61000;48.120;11.548;2023-05-27T06:59:21;8.35;;;6.32;;
72864;SDS011;61000;48.120;11.548;2023-05-27T07:01:48;11.55;;;6.32;;
72864;SDS011;61000;48.120;11.548;2023-05-27T07:04:18;11.40;;;6.07;;
72864;SDS011;61000;48.120;11.548;2023-05-27T07:06:50;13.88;;;5.82;;
72864;SDS011;61000;48.120;11.548;2023-05-27T07:09:17;10.82;;;5.75;;
72864;SDS011;61000;48.120;11.548;2023-05-27T07:11:44;10.90;;;6.10;;
72864;SDS011;61000;48.120;11.548;2023-05-27T07:14:30;17.08;;;5.85;;
72864;SDS011;61000;48.120;11.548;2023-05-27T07:16:57;10.82;;;5.45;;
72864;SDS011;61000;48.120;11.548;2023-05-27T07:19:24;10.57;;;5.50;;
72864;SDS011;61000;48.120;11.548;2023-05-27T07:21:56;12.25;;;6.38;;
72864;SDS011;61000;48.120;11.548;2023-05-27T07:24:24;12.00;;;6.40;;
72864;SDS011;61000;48.120;11.548;2023-05-27T07:26:54;10.75;;;5.80;;
72864;SDS011;61000;48.120;11.548;2023-05-27T07:29:23;8.40;;;5.45;;
72864;SDS011;61000;48.120;11.548;2023-05-27T07:32:14;16.33;;;5.68;;
72864;SDS011;61000;48.120;11.548;2023-05-27T07:34:41;10.98;;;5.55;;
72864;SDS011;61000;48.120;11.548;2023-05-27T07:37:08;6.22;;;4.90;;
72864;SDS011;61000;48.120;11.548;2023-05-27T07:39:35;14.73;;;6.57;;
72864;SDS011;61000;48.120;11.548;2023-05-27T07:42:02;11.57;;;6.00;;
72864;SDS011;61000;48.120;11.548;2023-05-27T07:44:30;12.73;;;5.88;;
72864;SDS011;61000;48.120;11.548;2023-05-27T07:46:57;12.43;;;5.53;;
72864;SDS011;61000;48.120;11.548;2023-05-27T07:49:27;9.70;;;5.38;;
72864;SDS011;61000;48.120;11.548;2023-05-27T07:52:06;10.52;;;5.13;;
72864;SDS011;61000;48.120;11.548;2023-05-27T07:54:33;10.02;;;4.88;;
72864;SDS011;61000;48.120;11.548;2023-05-27T07:57:01;11.65;;;4.97;;
72864;SDS011;61000;48.120;11.548;2023-05-27T07:59:29;9.10;;;4.68;;
72864;SDS011;61000;48.120;11.548;2023-05-27T08:01:56;13.02;;;5.32;;
72864;SDS011;61000;48.120;11.548;2023-05-27T08:04:23;12.35;;;5.35;;
72864;SDS011;61000;48.120;11.548;2023-05-27T08:07:21;8.60;;;5.07;;
72864;SDS011;61000;48.120;11.548;2023-05-27T08:10:09;12.20;;;5.30;;
72864;SDS011;61000;48.120;11.548;2023-05-27T08:12:56;13.20;;;5.47;;
72864;SDS011;61000;48.120;11.548;2023-05-27T08:15:41;8.88;;;4.90;;
72864;SDS011;61000;48.120;11.548;2023-05-27T08:18:33;15.32;;;5.45;;
72864;SDS011;61000;48.120;11.548;2023-05-27T08:21:13;7.85;;;5.88;;
72864;SDS011;61000;48.120;11.548;2023-05-27T08:24:11;12.43;;;5.90;;
72864;SDS011;61000;48.120;11.548;2023-05-27T08:26:59;15.70;;;5.43;;
72864;SDS011;61000;48.120;11.548;2023-05-27T08:29:44;11.27;;;5.30;;
72864;SDS011;61000;48.120;11.548;2023-05-27T08:32:26;10.70;;;5.57;;
72864;SDS011;61000;48.120;11.548;2023-05-27T08:34:53;10.30;;;5.55;;
72864;SDS011;61000;48.120;11.548;2023-05-27T08:37:20;11.52;;;5.32;;
72864;SDS011;61000;48.120;11.548;2023-05-27T08:39:49;12.88;;;6.93;;
72864;SDS011;61000;48.120;11.548;2023-05-27T08:42:34;13.23;;;5.30;;
72864;SDS011;61000;48.120;11.548;2023-05-27T08:45:02;14.57;;;6.18;;
72864;SDS011;61000;48.120;11.548;2023-05-27T08:47:30;10.48;;;5.70;;
72864;SDS011;61000;48.120;11.548;2023-05-27T08:49:58;16.15;;;5.18;;
72864;SDS011;61000;48.120;11.548;2023-05-27T08:52:26;11.20;;;5.18;;
72864;SDS011;61000;48.120;11.548;2023-05-27T08:54:55;18.50;;;6.03;;
72864;SDS011;61000;48.120;11.548;2023-05-27T08:57:25;11.30;;;5.40;;
72864;SDS011;61000;48.120;11.548;2023-05-27T08:59:54;18.08;;;7.10;;
72864;SDS011;61000;48.120;11.548;2023-05-27T09:02:22;12.82;;;5.53;;
72864;SDS011;61000;48.120;11.548;2023-05-27T09:04:49;16.30;;;5.82;;
72864;SDS011;61000;48.120;11.548;2023-05-27T09:07:17;10.35;;;5.15;;
72864;SDS011;61000;48.120;11.548;2023-05-27T09:09:54;8.30;;;4.82;;
72864;SDS011;61000;48.120;11.548;2023-05-27T09:12:23;10.82;;;5.32;;
72864;SDS011;61000;48.120;11.548;2023-05-27T09:14:50;11.90;;;5.55;;
72864;SDS011;61000;48.120;11.548;2023-05-27T09:17:18;10.60;;;5.30;;
72864;SDS011;61000;48.120;11.548;2023-05-27T09:19:49;8.95;;;5.43;;
72864;SDS011;61000;48.120;11.548;2023-05-27T09:22:20;10.75;;;5.50;;
72864;SDS011;61000;48.120;11.548;2023-05-27T09:24:47;8.45;;;4.72;;
72864;SDS011;61000;48.120;11.548;2023-05-27T09:27:16;10.45;;;5.60;;
72864;SDS011;61000;48.120;11.548;2023-05-27T09:29:45;7.45;;;5.03;;
72864;SDS011;61000;48.120;11.548;2023-05-27T09:32:12;7.07;;;4.90;;
72864;SDS011;61000;48.120;11.548;2023-05-27T09:34:49;10.25;;;5.47;;
72864;SDS011;61000;48.120;11.548;2023-05-27T09:37:16;9.52;;;6.10;;
72864;SDS011;61000;48.120;11.548;2023-05-27T09:39:44;8.95;;;5.25;;
72864;SDS011;61000;48.120;11.548;2023-05-27T09:42:11;10.32;;;5.07;;
72864;SDS011;61000;48.120;11.548;2023-05-27T09:44:39;9.70;;;5.60;;
72864;SDS011;61000;48.120;11.548;2023-05-27T09:47:07;9.10;;;5.13;;
72864;SDS011;61000;48.120;11.548;2023-05-27T09:49:36;9.25;;;5.55;;
72864;SDS011;61000;48.120;11.548;2023-05-27T09:52:06;9.50;;;5.30;;
72864;SDS011;61000;48.120;11.548;2023-05-27T09:54:40;8.23;;;5.43;;
72864;SDS011;61000;48.120;11.548;2023-05-27T09:57:07;11.35;;;5.75;;
72864;SDS011;61000;48.120;11.548;2023-05-27T09:59:36;8.80;;;5.05;;
72864;SDS011;61000;48.120;11.548;2023-05-27T10:02:06;8.93;;;5.00;;
72864;SDS011;61000;48.120;11.548;2023-05-27T10:04:33;13.20;;;5.20;;
72864;SDS011;61000;48.120;11.548;2023-05-27T10:07:02;8.80;;;4.82;;
72864;SDS011;61000;48.120;11.548;2023-05-27T10:09:29;12.57;;;4.80;;
72864;SDS011;61000;48.120;11.548;2023-05-27T10:11:56;10.13;;;5.30;;
72864;SDS011;61000;48.120;11.548;2023-05-27T10:14:23;7.32;;;5.00;;
72864;SDS011;61000;48.120;11.548;2023-05-27T10:16:51;8.52;;;5.05;;
72864;SDS011;61000;48.120;11.548;2023-05-27T10:19:21;8.05;;;5.07;;
72864;SDS011;61000;48.120;11.548;2023-05-27T10:21:48;7.70;;;4.82;;
72864;SDS011;61000;48.120;11.548;2023-05-27T10:24:15;8.15;;;4.75;;
72864;SDS011;61000;48.120;11.548;2023-05-27T10:26:58;9.27;;;5.07;;
72864;SDS011;61000;48.120;11.548;2023-05-27T10:29:56;5.97;;;4.53;;
72864;SDS011;61000;48.120;11.548;2023-05-27T10:32:27;10.30;;;4.90;;
72864;SDS011;61000;48.120;11.548;2023-05-27T10:38:01;6.88;;;4.60;;
72864;SDS011;61000;48.120;11.548;2023-05-27T10:40:57;7.68;;;4.63;;
72864;SDS011;61000;48.120;11.548;2023-05-27T10:43:29;7.57;;;5.55;;
72864;SDS011;61000;48.120;11.548;2023-05-27T10:46:01;9.57;;;4.95;;
72864;SDS011;61000;48.120;11.548;2023-05-27T10:48:30;8.93;;;4.70;;
72864;SDS011;61000;48.120;11.548;2023-05-27T10:50:59;8.10;;;4.70;;
72864;SDS011;61000;48.120;11.548;2023-05-27T10:53:27;7.43;;;5.18;;
72864;SDS011;61000;48.120;11.548;2023-05-27T10:55:57;6.45;;;4.85;;
72864;SDS011;61000;48.120;11.548;2023-05-27T10:58:28;7.35;;;5.35;;
72864;SDS011;61000;48.120;11.548;2023-05-27T11:01:07;12.40;;;5.25;;
72864;SDS011;61000;48.120;11.548;2023-05-27T11:03:41;9.13;;;5.53;;
72864;SDS011;61000;48.120;11.548;2023-05-27T11:06:14;9.90;;;5.72;;
72864;SDS011;61000;48.120;11.548;2023-05-27T11:08:41;8.63;;;5.57;;
72864;SDS011;61000;48.120;11.548;2023-05-27T11:11:13;12.38;;;5.22;;
72864;SDS011;61000;48.120;11.548;2023-05-27T11:13:44;10.57;;;5.82;;
72864;SDS011;61000;48.120;11.548;2023-05-27T11:16:14;9.15;;;5.55;;
72864;SDS011;61000;48.120;11.548;2023-05-27T11:18:45;10.32;;;5.50;;
72864;SDS011;61000;48.120;11.548;2023-05-27T11:21:13;11.50;;;5.97;;
72864;SDS011;61000;48.120;11.548;2023-05-27T11:23:43;12.18;;;5.68;;
72864;SDS011;61000;48.120;11.548;2023-05-27T11:26:11;10.45;;;5.72;;
72864;SDS011;61000;48.120;11.548;2023-05-27T11:28:44;7.88;;;5.25;;
72864;SDS011;61000;48.120;11.548;2023-05-27T11:31:12;8.70;;;5.72;;
72864;SDS011;61000;48.120;11.548;2023-05-27T11:33:40;10.68;;;6.18;;
72864;SDS011;61000;48.120;11.548;2023-05-27T11:36:10;7.38;;;5.60;;
72864;SDS011;61000;48.120;11.548;2023-05-27T11:38:46;9.55;;;5.43;;
72864;SDS011;61000;48.120;11.548;2023-05-27T11:41:21;9.50;;;5.13;;
72864;SDS011;61000;48.120;11.548;2023-05-27T11:43:50;6.38;;;4.68;;
72864;SDS011;61000;48.120;11.548;2023-05-27T11:46:18;7.65;;;5.13;;
72864;SDS011;61000;48.120;11.548;2023-05-27T11:48:45;7.68;;;5.07;;
72864;SDS011;61000;48.120;11.548;2023-05-27T11:51:13;7.60;;;4.88;;
72864;SDS011;61000;48.120;11.548;2023-05-27T11:53:40;8.80;;;5.30;;
72864;SDS011;61000;48.120;11.548;2023-05-27T11:56:11;8.27;;;5.03;;
72864;SDS011;61000;48.120;11.548;2023-05-27T11:58:38;10.70;;;5.43;;
72864;SDS011;61000;48.120;11.548;2023-05-27T12:01:05;8.85;;;5.43;;
72864;SDS011;61000;48.120;11.548;2023-05-27T12:03:32;6.15;;;4.50;;
72864;SDS011;61000;48.120;11.548;2023-05-27T12:06:00;8.55;;;4.75;;
72864;SDS011;61000;48.120;11.548;2023-05-27T12:08:33;7.88;;;5.05;;
72864;SDS011;61000;48.120;11.548;2023-05-27T12:11:00;8.27;;;4.55;;
72864;SDS011;61000;48.120;11.548;2023-05-27T12:13:36;7.43;;;4.85;;
72864;SDS011;61000;48.120;11.548;2023-05-27T12:16:12;9.02;;;4.78;;
72864;SDS011;61000;48.120;11.548;2023-05-27T12:18:39;8.50;;;4.25;;
72864;SDS011;61000;48.120;11.548;2023-05-27T12:21:07;10.45;;;5.43;;
72864;SDS011;61000;48.120;11.548;2023-05-27T12:23:34;9.50;;;4.60;;
72864;SDS011;61000;48.120;11.548;2023-05-27T12:26:03;8.45;;;4.95;;
72864;SDS011;61000;48.120;11.548;2023-05-27T12:28:33;8.93;;;4.35;;
72864;SDS011;61000;48.120;11.548;2023-05-27T12:31:02;9.10;;;4.10;;
72864;SDS011;61000;48.120;11.548;2023-05-27T12:33:29;13.15;;;4.50;;
72864;SDS011;61000;48.120;11.548;2023-05-27T12:35:56;9.38;;;5.20;;
72864;SDS011;61000;48.120;11.548;2023-05-27T12:38:23;6.60;;;4.32;;
72864;SDS011;61000;48.120;11.548;2023-05-27T12:40:50;7.10;;;4.65;;
72864;SDS011;61000;48.120;11.548;2023-05-27T12:43:17;7.45;;;4.40;;
72864;SDS011;61000;48.120;11.548;2023-05-27T12:45:44;11.65;;;4.15;;
72864;SDS011;61000;48.120;11.548;2023-05-27T12:48:13;10.20;;;4.18;;
72864;SDS011;61000;48.120;11.548;2023-05-27T12:50:40;9.57;;;4.28;;
72864;SDS011;61000;48.120;11.548;2023-05-27T12:53:08;7.38;;;4.53;;
72864;SDS011;61000;48.120;11.548;2023-05-27T12:55:35;10.55;;;4.50;;
72864;SDS011;61000;48.120;11.548;2023-05-27T12:58:03;5.47;;;3.92;;
72864;SDS011;61000;48.120;11.548;2023-05-27T13:00:31;7.28;;;4.30;;
72864;SDS011;61000;48.120;11.548;2023-05-27T13:02:59;10.35;;;4.78;;
72864;SDS011;61000;48.120;11.548;2023-05-27T13:05:27;7.20;;;4.15;;
72864;SDS011;61000;48.120;11.548;2023-05-27T13:07:55;12.40;;;5.03;;
72864;SDS011;61000;48.120;11.548;2023-05-27T13:10:23;8.27;;;4.18;;
72864;SDS011;61000;48.120;11.548;2023-05-27T13:12:50;12.52;;;4.45;;
72864;SDS011;61000;48.120;11.548;2023-05-27T13:15:17;8.70;;;4.63;;
72864;SDS011;61000;48.120;11.548;2023-05-27T13:17:45;7.47;;;4.47;;
72864;SDS011;61000;48.120;11.548;2023-05-27T13:20:12;9.07;;;4.85;;
72864;SDS011;61000;48.120;11.548;2023-05-27T13:22:41;8.25;;;4.30;;
72864;SDS011;61000;48.120;11.548;2023-05-27T13:25:09;7.32;;;3.72;;
72864;SDS011;61000;48.120;11.548;2023-05-27T13:27:36;11.40;;;4.72;;
72864;SDS011;61000;48.120;11.548;2023-05-27T13:30:03;6.68;;;4.15;;
72864;SDS011;61000;48.120;11.548;2023-05-27T13:32:31;4.75;;;3.97;;
72864;SDS011;61000;48.120;11.548;2023-05-27T13:34:58;8.93;;;4.32;;
72864;SDS011;61000;48.120;11.548;2023-05-27T13:37:25;11.38;;;4.53;;
72864;SDS011;61000;48.120;11.548;2023-05-27T13:39:53;8.65;;;3.78;;
72864;SDS011;61000;48.120;11.548;2023-05-27T13:42:20;8.93;;;4.72;;
72864;SDS011;61000;48.120;11.548;2023-05-27T13:44:47;7.70;;;4.28;;
72864;SDS011;61000;48.120;11.548;2023-05-27T13:47:14;9.45;;;4.47;;
72864;SDS011;61000;48.120;11.548;2023-05-27T13:49:41;10.35;;;4.70;;
72864;SDS011;61000;48.120;11.548;2023-05-27T13:52:08;10.82;;;4.15;;
72864;SDS011;61000;48.120;11.548;2023-05-27T13:54:36;8.48;;;4.10;;
72864;SDS011;61000;48.120;11.548;2023-05-27T13:57:05;5.80;;;3.95;;
72864;SDS011;61000;48.120;11.548;2023-05-27T13:59:31;8.55;;;4.30;;
72864;SDS011;61000;48.120;11.548;2023-05-27T14:01:58;9.68;;;4.38;;
72864;SDS011;61000;48.120;11.548;2023-05-27T14:04:30;6.93;;;4.13;;
72864;SDS011;61000;48.120;11.548;2023-05-27T14:06:57;10.55;;;3.85;;
72864;SDS011;61000;48.120;11.548;2023-05-27T14:09:24;7.75;;;4.57;;
72864;SDS011;61000;48.120;11.548;2023-05-27T14:11:51;12.52;;;4.32;;
72864;SDS011;61000;48.120;11.548;2023-05-27T14:14:19;8.20;;;3.80;;
72864;SDS011;61000;48.120;11.548;2023-05-27T14:16:46;6.70;;;4.25;;
72864;SDS011;61000;48.120;11.548;2023-05-27T14:19:13;6.70;;;3.90;;
72864;SDS011;61000;48.120;11.548;2023-05-27T14:21:40;9.05;;;4.18;;
72864;SDS011;61000;48.120;11.548;2023-05-27T14:24:07;6.30;;;3.63;;
72864;SDS011;61000;48.120;11.548;2023-05-27T14:26:34;6.97;;;3.95;;
72864;SDS011;61000;48.120;11.548;2023-05-27T14:29:01;8.82;;;4.57;;
72864;SDS011;61000;48.120;11.548;2023-05-27T14:31:29;11.57;;;4.88;;
72864;SDS011;61000;48.120;11.548;2023-05-27T14:33:56;6.18;;;3.95;;
72864;SDS011;61000;48.120;11.548;2023-05-27T14:36:23;8.50;;;4.40;;
72864;SDS011;61000;48.120;11.548;2023-05-27T14:38:50;11.48;;;4.00;;
72864;SDS011;61000;48.120;11.548;2023-05-27T14:41:17;11.68;;;4.50;;
72864;SDS011;61000;48.120;11.548;2023-05-27T14:43:44;9.68;;;4.03;;